Time,TemperatureF,DewpointF,PressureIn,WindDirection,WindDirectionDegrees,WindSpeedMPH,WindSpeedGustMPH,Humidity,HourlyPrecipIn,Conditions,Clouds,dailyrainin,SoftwareType,DateUTC
2013-01-25 00:17:00,22.8,4.0,30.38,East,94,2.0,8.0,45,0.00,,,0.00,weatherlink.com 1.10,2013-01-25 05:17:00,
2013-01-25 00:32:00,22.9,4.0,30.37,ENE,77,2.0,10.0,44,0.00,,,0.00,weatherlink.com 1.10,2013-01-25 05:32:00,
2013-01-25 00:47:00,22.8,4.0,30.37,East,88,3.0,8.0,44,0.00,,,0.00,weatherlink.com 1.10,2013-01-25 05:47:00,
2013-01-25 01:02:00,22.7,4.0,30.36,East,91,1.0,8.0,45,0.00,,,0.00,weatherlink.com 1.10,2013-01-25 06:02:00,
2013-01-25 01:17:00,22.7,5.0,30.37,ESE,104,3.0,5.0,46,0.00,,,0.00,weatherlink.com 1.10,2013-01-25 06:17:00,
2013-01-25 01:32:00,22.7,5.0,30.36,East,86,0.0,5.0,46,0.00,,,0.00,weatherlink.com 1.10,2013-01-25 06:32:00,
2013-01-25 01:47:00,22.7,5.0,30.35,East,90,1.0,5.0,46,0.00,,,0.00,weatherlink.com 1.10,2013-01-25 06:47:00,
2013-01-25 02:03:00,22.7,5.0,30.33,East,93,2.0,5.0,46,0.00,,,0.00,weatherlink.com 1.10,2013-01-25 07:03:00,
2013-01-25 02:17:00,22.9,5.0,30.32,East,81,1.0,7.0,46,0.00,,,0.00,weatherlink.com 1.10,2013-01-25 07:17:00,
2013-01-25 02:32:00,23.1,5.0,30.33,ESE,120,2.0,6.0,45,0.00,,,0.00,weatherlink.com 1.10,2013-01-25 07:32:00,
2013-01-25 02:47:00,23.3,6.0,30.31,ESE,106,3.0,5.0,47,0.00,,,0.00,weatherlink.com 1.10,2013-01-25 07:47:00,
2013-01-25 03:03:00,23.3,5.0,30.31,NE,48,2.0,9.0,46,0.00,,,0.00,weatherlink.com 1.10,2013-01-25 08:03:00,
2013-01-25 03:17:00,23.5,5.0,30.31,NE,55,0.0,7.0,46,0.00,,,0.00,weatherlink.com 1.10,2013-01-25 08:17:00,
2013-01-25 03:32:00,23.6,5.0,30.30,East,81,3.0,7.0,46,0.00,,,0.00,weatherlink.com 1.10,2013-01-25 08:32:00,
2013-01-25 03:48:00,23.6,6.0,30.28,East,80,7.0,8.0,47,0.00,,,0.00,weatherlink.com 1.10,2013-01-25 08:48:00,
2013-01-25 04:03:00,23.6,7.0,30.28,East,83,0.0,5.0,50,0.00,,,0.00,weatherlink.com 1.10,2013-01-25 09:03:00,
2013-01-25 04:18:00,23.6,7.0,30.27,NE,53,0.0,5.0,50,0.00,,,0.00,weatherlink.com 1.10,2013-01-25 09:18:00,
2013-01-25 04:33:00,23.7,7.0,30.26,NNE,18,4.0,5.0,50,0.00,,,0.00,weatherlink.com 1.10,2013-01-25 09:33:00,
2013-01-25 04:48:00,23.7,7.0,30.25,NNE,31,6.0,6.0,50,0.00,,,0.00,weatherlink.com 1.10,2013-01-25 09:48:00,
2013-01-25 05:03:00,23.6,8.0,30.23,ENE,69,1.0,7.0,52,0.00,,,0.00,weatherlink.com 1.10,2013-01-25 10:03:00,
2013-01-25 05:18:00,23.5,8.0,30.22,NE,36,4.0,9.0,52,0.00,,,0.00,weatherlink.com 1.10,2013-01-25 10:18:00,
2013-01-25 05:33:00,23.3,9.0,30.20,SE,134,3.0,8.0,55,0.00,,,0.00,weatherlink.com 1.10,2013-01-25 10:33:00,
2013-01-25 05:48:00,23.3,10.0,30.20,NE,49,0.0,7.0,57,0.00,,,0.00,weatherlink.com 1.10,2013-01-25 10:48:00,
2013-01-25 06:03:00,23.3,10.0,30.18,East,92,2.0,5.0,57,0.00,,,0.00,weatherlink.com 1.10,2013-01-25 11:03:00,
2013-01-25 06:18:00,23.2,11.0,30.18,East,83,2.0,8.0,60,0.00,,,0.00,weatherlink.com 1.10,2013-01-25 11:18:00,
2013-01-25 06:33:00,23.1,12.0,30.18,ENE,57,3.0,7.0,62,0.00,,,0.00,weatherlink.com 1.10,2013-01-25 11:33:00,
2013-01-25 06:48:00,22.9,13.0,30.19,ESE,123,2.0,5.0,66,0.00,,,0.00,weatherlink.com 1.10,2013-01-25 11:48:00,
2013-01-25 07:03:00,22.4,14.0,30.18,East,88,0.0,5.0,71,0.00,,,0.00,weatherlink.com 1.10,2013-01-25 12:03:00,
2013-01-25 07:18:00,22.1,15.0,30.17,East,97,0.0,5.0,73,0.00,,,0.00,weatherlink.com 1.10,2013-01-25 12:18:00,
2013-01-25 07:33:00,22.0,15.0,30.19,East,93,0.0,5.0,75,0.00,,,0.00,weatherlink.com 1.10,2013-01-25 12:33:00,
2013-01-25 07:48:00,22.0,16.0,30.18,ENE,63,2.0,5.0,77,0.00,,,0.00,weatherlink.com 1.10,2013-01-25 12:48:00,
2013-01-25 08:03:00,22.0,16.0,30.20,North,5,0.0,3.0,78,0.00,,,0.00,weatherlink.com 1.10,2013-01-25 13:03:00,
2013-01-25 08:18:00,21.9,17.0,30.16,ENE,67,0.0,3.0,82,0.00,,,0.00,weatherlink.com 1.10,2013-01-25 13:18:00,
2013-01-25 08:33:00,21.8,17.0,30.16,ENE,68,1.0,2.0,83,0.00,,,0.00,weatherlink.com 1.10,2013-01-25 13:33:00,
2013-01-25 08:48:00,21.7,18.0,30.15,ENE,62,0.0,3.0,84,0.00,,,0.00,weatherlink.com 1.10,2013-01-25 13:48:00,
2013-01-25 09:03:00,21.7,18.0,30.14,East,96,0.0,3.0,84,0.00,,,0.00,weatherlink.com 1.10,2013-01-25 14:03:00,
2013-01-25 09:18:00,21.6,18.0,30.15,SSE,151,2.0,5.0,84,0.00,,,0.00,weatherlink.com 1.10,2013-01-25 14:18:00,
2013-01-25 09:33:00,21.7,18.0,30.16,NE,50,0.0,3.0,86,0.00,,,0.00,weatherlink.com 1.10,2013-01-25 14:33:00,
2013-01-25 09:48:00,22.0,18.0,30.15,NE,50,0.0,3.0,85,0.00,,,0.00,weatherlink.com 1.10,2013-01-25 14:48:00,
2013-01-25 10:03:00,22.3,19.0,30.15,NE,50,0.0,0.0,85,0.00,,,0.00,weatherlink.com 1.10,2013-01-25 15:03:00,
2013-01-25 10:18:00,22.6,19.0,30.15,NE,51,0.0,1.0,84,0.00,,,0.00,weatherlink.com 1.10,2013-01-25 15:18:00,
2013-01-25 10:33:00,22.7,19.0,30.16,NE,51,0.0,0.0,84,0.00,,,0.00,weatherlink.com 1.10,2013-01-25 15:33:00,
2013-01-25 10:48:00,22.7,19.0,30.17,NE,51,0.0,0.0,84,0.00,,,0.00,weatherlink.com 1.10,2013-01-25 15:48:00,
2013-01-25 11:03:00,22.8,19.0,30.17,NE,48,2.0,3.0,84,0.00,,,0.00,weatherlink.com 1.10,2013-01-25 16:03:00,
2013-01-25 11:18:00,23.0,19.0,30.17,NNW,329,3.0,4.0,85,0.00,,,0.00,weatherlink.com 1.10,2013-01-25 16:18:00,
2013-01-25 11:33:00,23.2,19.0,30.17,WNW,294,0.0,3.0,85,0.00,,,0.00,weatherlink.com 1.10,2013-01-25 16:33:00,
2013-01-25 11:48:00,23.4,20.0,30.18,NW,312,0.0,4.0,86,0.00,,,0.00,weatherlink.com 1.10,2013-01-25 16:48:00,
2013-01-25 12:03:00,23.6,20.0,30.17,NNW,339,2.0,6.0,86,0.00,,,0.00,weatherlink.com 1.10,2013-01-25 17:03:00,
2013-01-25 12:18:00,24.1,21.0,30.16,WSW,257,0.0,3.0,86,0.00,,,0.00,weatherlink.com 1.10,2013-01-25 17:18:00,
2013-01-25 12:33:00,24.4,21.0,30.15,SW,225,0.0,6.0,85,0.00,,,0.00,weatherlink.com 1.10,2013-01-25 17:33:00,
2013-01-25 12:48:00,24.7,21.0,30.14,SW,217,0.0,6.0,86,0.00,,,0.00,weatherlink.com 1.10,2013-01-25 17:48:00,
2013-01-25 13:03:00,24.9,21.0,30.14,WSW,252,3.0,6.0,85,0.00,,,0.00,weatherlink.com 1.10,2013-01-25 18:03:00,
2013-01-25 13:18:00,25.3,21.0,30.13,West,264,2.0,6.0,85,0.00,,,0.00,weatherlink.com 1.10,2013-01-25 18:18:00,
2013-01-25 13:33:00,25.6,22.0,30.13,WSW,242,5.0,6.0,85,0.00,,,0.00,weatherlink.com 1.10,2013-01-25 18:33:00,
2013-01-25 13:49:00,25.9,22.0,30.12,WSW,245,2.0,7.0,85,0.00,,,0.00,weatherlink.com 1.10,2013-01-25 18:49:00,
2013-01-25 14:04:00,26.2,22.0,30.12,WNW,296,1.0,8.0,84,0.00,,,0.00,weatherlink.com 1.10,2013-01-25 19:04:00,
2013-01-25 14:19:00,26.5,22.0,30.12,West,261,1.0,6.0,84,0.00,,,0.00,weatherlink.com 1.10,2013-01-25 19:19:00,
2013-01-25 14:34:00,26.5,22.0,30.11,SW,228,1.0,8.0,82,0.00,,,0.00,weatherlink.com 1.10,2013-01-25 19:34:00,
2013-01-25 14:49:00,26.7,22.0,30.12,WSW,252,2.0,9.0,82,0.00,,,0.00,weatherlink.com 1.10,2013-01-25 19:49:00,
2013-01-25 15:04:00,27.1,22.0,30.12,SW,236,2.0,7.0,81,0.00,,,0.00,weatherlink.com 1.10,2013-01-25 20:04:00,
2013-01-25 15:19:00,27.4,22.0,30.12,WSW,251,3.0,7.0,80,0.00,,,0.00,weatherlink.com 1.10,2013-01-25 20:19:00,
2013-01-25 15:34:00,27.7,22.0,30.12,WSW,244,3.0,8.0,80,0.00,,,0.00,weatherlink.com 1.10,2013-01-25 20:34:00,
2013-01-25 15:49:00,27.9,22.0,30.13,WSW,248,2.0,7.0,79,0.00,,,0.00,weatherlink.com 1.10,2013-01-25 20:49:00,
2013-01-25 16:04:00,28.1,22.0,30.13,West,262,2.0,7.0,78,0.00,,,0.00,weatherlink.com 1.10,2013-01-25 21:04:00,
2013-01-25 16:19:00,28.5,22.0,30.13,SW,234,6.0,7.0,77,0.00,,,0.00,weatherlink.com 1.10,2013-01-25 21:19:00,
2013-01-25 16:34:00,28.7,22.0,30.13,WSW,245,3.0,7.0,76,0.00,,,0.00,weatherlink.com 1.10,2013-01-25 21:34:00,
2013-01-25 16:50:00,29.2,22.0,30.12,SSW,213,2.0,5.0,75,0.00,,,0.00,weatherlink.com 1.10,2013-01-25 21:50:00,
2013-01-25 17:04:00,29.6,23.0,30.12,WSW,240,2.0,6.0,75,0.00,,,0.00,weatherlink.com 1.10,2013-01-25 22:04:00,
2013-01-25 17:19:00,29.3,22.0,30.12,SW,226,3.0,7.0,75,0.00,,,0.00,weatherlink.com 1.10,2013-01-25 22:19:00,
2013-01-25 17:34:00,28.4,22.0,30.13,SW,227,1.0,6.0,77,0.00,,,0.00,weatherlink.com 1.10,2013-01-25 22:34:00,
2013-01-25 17:49:00,28.3,22.0,30.13,SSW,208,2.0,3.0,78,0.00,,,0.00,weatherlink.com 1.10,2013-01-25 22:49:00,
2013-01-25 18:04:00,27.9,22.0,30.14,SW,232,1.0,5.0,78,0.00,,,0.00,weatherlink.com 1.10,2013-01-25 23:04:00,
2013-01-25 18:19:00,27.2,22.0,30.15,SW,231,0.0,2.0,79,0.00,,,0.00,weatherlink.com 1.10,2013-01-25 23:19:00,
2013-01-25 18:34:00,26.6,21.0,30.15,SSW,205,0.0,1.0,80,0.00,,,0.00,weatherlink.com 1.10,2013-01-25 23:34:00,
2013-01-25 18:49:00,25.9,21.0,30.14,SSW,202,0.0,0.0,81,0.00,,,0.00,weatherlink.com 1.10,2013-01-25 23:49:00,
2013-01-25 19:04:00,25.4,21.0,30.15,SSW,202,0.0,0.0,82,0.00,,,0.00,weatherlink.com 1.10,2013-01-26 00:04:00,
2013-01-25 19:19:00,24.8,20.0,30.15,SSW,202,0.0,0.0,82,0.00,,,0.00,weatherlink.com 1.10,2013-01-26 00:19:00,
2013-01-25 19:34:00,24.1,20.0,30.15,SSW,202,0.0,0.0,83,0.00,,,0.00,weatherlink.com 1.10,2013-01-26 00:34:00,
2013-01-25 19:49:00,23.0,19.0,30.16,SSW,202,0.0,0.0,84,0.00,,,0.00,weatherlink.com 1.10,2013-01-26 00:49:00,
2013-01-25 20:04:00,22.0,18.0,30.16,SSW,202,0.0,0.0,85,0.00,,,0.00,weatherlink.com 1.10,2013-01-26 01:04:00,
2013-01-25 20:19:00,21.5,18.0,30.17,SSW,202,0.0,0.0,86,0.00,,,0.00,weatherlink.com 1.10,2013-01-26 01:19:00,
2013-01-25 20:34:00,20.8,18.0,30.16,SSW,202,0.0,0.0,87,0.00,,,0.00,weatherlink.com 1.10,2013-01-26 01:34:00,
2013-01-25 20:49:00,20.3,17.0,30.16,SSW,202,0.0,0.0,88,0.00,,,0.00,weatherlink.com 1.10,2013-01-26 01:49:00,
2013-01-25 21:04:00,20.0,17.0,30.15,SSW,202,0.0,0.0,88,0.00,,,0.00,weatherlink.com 1.10,2013-01-26 02:04:00,
2013-01-25 21:19:00,19.8,17.0,30.15,SSW,202,0.0,0.0,89,0.00,,,0.00,weatherlink.com 1.10,2013-01-26 02:19:00,
2013-01-25 21:34:00,19.6,17.0,30.16,SSW,202,0.0,0.0,90,0.00,,,0.00,weatherlink.com 1.10,2013-01-26 02:34:00,
2013-01-25 21:49:00,19.8,17.0,30.16,SSW,202,0.0,0.0,90,0.00,,,0.00,weatherlink.com 1.10,2013-01-26 02:49:00,
2013-01-25 22:04:00,19.8,17.0,30.17,SSW,202,0.0,0.0,90,0.00,,,0.00,weatherlink.com 1.10,2013-01-26 03:04:00,
2013-01-25 22:19:00,19.7,17.0,30.17,SSW,202,0.0,0.0,90,0.00,,,0.00,weatherlink.com 1.10,2013-01-26 03:19:00,
2013-01-25 22:34:00,19.6,17.0,30.17,SSW,202,0.0,0.0,89,0.00,,,0.00,weatherlink.com 1.10,2013-01-26 03:34:00,
2013-01-25 22:49:00,19.5,17.0,30.18,SSW,202,0.0,0.0,90,0.00,,,0.00,weatherlink.com 1.10,2013-01-26 03:49:00,
2013-01-25 23:04:00,19.5,17.0,30.17,SSW,205,0.0,3.0,89,0.00,,,0.00,weatherlink.com 1.10,2013-01-26 04:04:00,
2013-01-25 23:19:00,19.6,17.0,30.18,SSW,205,0.0,0.0,89,0.00,,,0.00,weatherlink.com 1.10,2013-01-26 04:19:00,
2013-01-25 23:34:00,19.4,16.0,30.18,SSW,205,0.0,0.0,88,0.00,,,0.00,weatherlink.com 1.10,2013-01-26 04:34:00,
2013-01-25 23:49:00,19.1,16.0,30.19,SSW,205,0.0,0.0,88,0.00,,,0.00,weatherlink.com 1.10,2013-01-26 04:49:00,